createdAt,value
2022-12-16T00:02:31.709Z,14.51
2022-12-16T00:07:37.795Z,14.76
2022-12-16T00:12:44.300Z,14.56
2022-12-16T00:17:50.495Z,13.98
2022-12-16T00:22:56.119Z,14.59
2022-12-16T00:28:02.731Z,15.21
2022-12-16T00:33:08.917Z,14.87
2022-12-16T00:38:15.206Z,15.03
2022-12-16T00:43:21.370Z,15.30
2022-12-16T00:48:27.548Z,15.12
2022-12-16T00:53:33.879Z,15.91
2022-12-16T00:58:39.380Z,15.20
2022-12-16T01:03:45.634Z,16.00
2022-12-16T01:08:51.871Z,15.92
2022-12-16T01:13:57.988Z,16.39
2022-12-16T01:19:04.255Z,16.11
2022-12-16T01:24:10.637Z,16.13
2022-12-16T01:29:16.891Z,15.47
2022-12-16T01:34:23.069Z,16.17
2022-12-16T01:39:29.625Z,15.39
2022-12-16T01:44:35.813Z,15.94
2022-12-16T01:49:41.990Z,16.57
2022-12-16T01:54:48.132Z,16.11
2022-12-16T01:59:54.306Z,15.88
2022-12-16T02:05:00.451Z,16.56
2022-12-16T02:10:06.621Z,16.42
2022-12-16T02:15:12.677Z,16.51
2022-12-16T02:20:18.869Z,16.65
2022-12-16T02:25:24.971Z,16.49
2022-12-16T02:30:31.239Z,16.60
2022-12-16T02:35:37.251Z,16.07
2022-12-16T02:40:44.240Z,15.96
2022-12-16T02:45:50.427Z,16.73
2022-12-16T02:50:56.849Z,16.48
2022-12-16T02:56:03.021Z,16.79
2022-12-16T03:01:10.345Z,16.77
2022-12-16T03:06:16.457Z,16.71
2022-12-16T03:11:22.596Z,16.13
2022-12-16T03:16:28.816Z,16.57
2022-12-16T03:21:35.384Z,17.14
2022-12-16T03:26:41.449Z,16.58
2022-12-16T03:31:47.659Z,17.49
2022-12-16T03:36:53.735Z,18.13
2022-12-16T03:42:00.037Z,18.66
2022-12-16T03:47:06.105Z,18.44
2022-12-16T03:52:12.282Z,18.82
2022-12-16T03:57:18.406Z,20.48
2022-12-16T04:02:24.829Z,20.45
2022-12-16T04:07:30.765Z,19.51
2022-12-16T04:12:36.961Z,19.71
2022-12-16T04:17:43.041Z,18.82
2022-12-16T04:22:49.193Z,20.15
2022-12-16T04:27:55.275Z,20.78
2022-12-16T04:33:01.509Z,20.09
2022-12-16T04:38:07.933Z,20.45
2022-12-16T04:43:14.196Z,21.07
2022-12-16T04:48:20.287Z,21.25
2022-12-16T04:53:26.466Z,21.37
2022-12-16T04:58:32.544Z,22.85
2022-12-16T05:03:39.180Z,22.16
2022-12-16T05:08:45.259Z,21.07
2022-12-16T05:13:51.399Z,22.62
2022-12-16T05:18:57.557Z,22.23
2022-12-16T05:24:04.084Z,22.29
2022-12-16T05:29:10.194Z,23.78
2022-12-16T05:34:16.674Z,22.58
2022-12-16T05:39:22.776Z,23.23
2022-12-16T05:44:29.036Z,22.25
2022-12-16T05:49:35.199Z,23.04
2022-12-16T05:54:41.541Z,21.99
2022-12-16T05:59:47.645Z,22.68
2022-12-16T06:04:53.914Z,21.60
2022-12-16T06:10:00.788Z,20.64
2022-12-16T06:15:07.008Z,20.16
2022-12-16T06:20:13.153Z,19.02
2022-12-16T06:25:19.339Z,19.19
2022-12-16T06:30:25.440Z,18.15
2022-12-16T06:35:32.397Z,18.11
2022-12-16T06:40:38.567Z,16.19
2022-12-16T06:45:44.801Z,17.04
2022-12-16T06:50:54.960Z,17.79
2022-12-16T06:55:56.980Z,16.50
2022-12-16T07:01:03.175Z,17.93
2022-12-16T07:06:09.318Z,17.28
2022-12-16T07:11:16.616Z,17.00
2022-12-16T07:16:21.298Z,15.47
2022-12-16T07:21:27.334Z,16.12
2022-12-16T07:26:33.598Z,16.54
2022-12-16T07:31:39.878Z,16.79
2022-12-16T07:36:46.404Z,17.23
2022-12-16T07:41:52.506Z,16.53
2022-12-16T07:46:58.681Z,16.83
2022-12-16T07:52:04.770Z,16.59
2022-12-16T07:57:11.049Z,16.20
2022-12-16T08:02:17.321Z,14.40
2022-12-16T08:07:23.395Z,14.44
2022-12-16T08:12:29.795Z,14.23
2022-12-16T08:17:36.104Z,13.72
2022-12-16T08:22:42.209Z,13.25
2022-12-16T08:27:48.522Z,13.08
2022-12-16T08:32:59.020Z,13.50
2022-12-16T08:38:00.299Z,13.79
2022-12-16T08:43:11.024Z,13.47
2022-12-16T08:48:12.177Z,13.21
2022-12-16T08:53:18.199Z,13.55
2022-12-16T08:58:24.515Z,13.92
2022-12-16T09:03:30.970Z,13.94
2022-12-16T09:08:36.447Z,15.15
2022-12-16T09:13:42.590Z,14.30
2022-12-16T09:18:48.826Z,14.90
2022-12-16T09:23:54.917Z,13.81
2022-12-16T09:29:00.724Z,14.85
2022-12-16T09:34:06.816Z,14.67
2022-12-16T09:40:18.132Z,17.45
2022-12-16T09:45:24.412Z,15.52
2022-12-16T09:50:30.592Z,14.97
2022-12-16T09:55:36.708Z,15.33
2022-12-16T10:00:42.996Z,15.51
2022-12-16T10:05:50.003Z,15.30
2022-12-16T10:10:56.512Z,16.37
2022-12-16T10:16:03.118Z,18.03
2022-12-16T10:21:09.431Z,17.34
2022-12-16T10:26:16.319Z,18.17
2022-12-16T10:31:26.735Z,17.70
2022-12-16T10:36:28.234Z,19.57
2022-12-16T10:41:34.401Z,18.77
2022-12-16T10:46:40.494Z,18.91
2022-12-16T10:51:46.984Z,19.04
2022-12-16T10:56:53.171Z,20.21
2022-12-16T11:01:59.919Z,20.99
2022-12-16T11:07:05.830Z,20.58
2022-12-16T11:12:12.019Z,21.43
2022-12-16T11:17:18.174Z,19.07
2022-12-16T11:22:24.495Z,19.66
2022-12-16T11:27:30.572Z,19.59
2022-12-16T11:32:37.059Z,18.75
2022-12-16T11:37:43.143Z,18.26
2022-12-16T11:42:49.478Z,17.89
2022-12-16T11:47:55.631Z,18.37
2022-12-16T11:53:01.906Z,17.83
2022-12-16T11:58:08.071Z,18.02
2022-12-16T12:03:14.423Z,18.29
2022-12-16T12:08:20.704Z,18.69
2022-12-16T12:13:27.048Z,18.45
2022-12-16T12:18:33.517Z,18.21
2022-12-16T12:23:38.858Z,18.64
2022-12-16T12:28:44.914Z,18.48
2022-12-16T12:33:51.253Z,19.59
2022-12-16T12:38:57.335Z,19.55
2022-12-16T12:44:03.531Z,19.66
2022-12-16T12:49:10.049Z,19.97
2022-12-16T12:54:16.230Z,19.15
2022-12-16T12:59:22.347Z,20.77
2022-12-16T13:04:28.680Z,21.01
2022-12-16T13:09:34.838Z,20.59
2022-12-16T13:14:41.351Z,21.25
2022-12-16T13:19:47.582Z,21.41
2022-12-16T13:24:53.872Z,18.79
2022-12-16T13:30:00.090Z,19.77
2022-12-16T13:35:06.412Z,21.58
2022-12-16T13:40:12.917Z,21.71
2022-12-16T13:45:19.162Z,20.40
2022-12-16T13:50:25.315Z,20.70
2022-12-16T13:55:31.867Z,21.16
2022-12-16T14:00:38.009Z,23.03
2022-12-16T14:05:44.532Z,21.62
2022-12-16T14:10:51.013Z,19.79
2022-12-16T14:15:58.110Z,20.11
2022-12-16T14:21:04.252Z,22.27
2022-12-16T14:26:11.411Z,22.83
2022-12-16T14:31:17.667Z,23.33
2022-12-16T14:36:24.081Z,24.87
2022-12-16T14:41:30.181Z,25.89
2022-12-16T14:46:36.474Z,25.48
2022-12-16T14:51:42.576Z,26.79
2022-12-16T14:56:48.847Z,26.09
2022-12-16T15:01:55.157Z,26.22
2022-12-16T15:07:01.337Z,26.32
2022-12-16T15:12:07.435Z,25.84
2022-12-16T15:17:13.734Z,36.54
2022-12-16T15:22:19.956Z,25.46
2022-12-16T15:27:26.202Z,22.60
2022-12-16T15:32:32.347Z,22.66
2022-12-16T15:37:39.133Z,21.93
2022-12-16T15:42:45.244Z,23.80
2022-12-16T15:47:51.448Z,25.15
2022-12-16T15:52:57.722Z,23.43
2022-12-16T15:58:04.507Z,22.68
2022-12-16T16:03:11.403Z,24.04
2022-12-16T16:08:17.782Z,23.55
2022-12-16T16:13:24.308Z,24.65
2022-12-16T16:18:31.076Z,25.25
2022-12-16T16:23:37.633Z,25.58
2022-12-16T16:28:44.235Z,24.58
2022-12-16T16:33:51.094Z,25.89
2022-12-16T16:38:57.873Z,25.74
2022-12-16T16:44:04.272Z,31.73
2022-12-16T16:49:10.965Z,31.02
2022-12-16T16:54:18.187Z,28.42
2022-12-16T16:59:25.158Z,34.96
2022-12-16T17:04:32.962Z,31.90
2022-12-16T17:09:39.442Z,29.98
2022-12-16T17:14:47.554Z,30.35
2022-12-16T17:19:54.264Z,28.95
2022-12-16T17:25:01.014Z,31.02
2022-12-16T17:30:07.386Z,32.34
2022-12-16T17:35:13.823Z,29.66
2022-12-16T17:40:20.399Z,29.94
2022-12-16T17:45:28.146Z,29.04
2022-12-16T17:50:36.133Z,28.70
2022-12-16T17:55:42.646Z,31.19
2022-12-16T18:00:49.096Z,27.93
2022-12-16T18:05:55.925Z,29.02
2022-12-16T18:11:02.898Z,30.51
2022-12-16T18:16:09.249Z,30.97
2022-12-16T18:21:15.699Z,30.55
2022-12-16T18:26:22.076Z,31.83
2022-12-16T18:31:30.314Z,32.23
2022-12-16T18:36:37.021Z,31.37
2022-12-16T18:41:44.969Z,29.95
2022-12-16T18:46:51.486Z,31.32
2022-12-16T18:51:58.261Z,30.83
2022-12-16T18:57:04.984Z,30.26
2022-12-16T19:02:11.610Z,29.92
2022-12-16T19:07:18.053Z,28.74
2022-12-16T19:12:24.591Z,30.04
2022-12-16T19:17:31.317Z,29.95
2022-12-16T19:22:38.249Z,30.62
2022-12-16T19:27:45.170Z,31.26
2022-12-16T19:32:51.665Z,30.53
2022-12-16T19:37:59.002Z,28.72
2022-12-16T19:43:05.789Z,28.57
2022-12-16T19:48:12.257Z,27.58
2022-12-16T19:53:19.273Z,28.19
2022-12-16T19:58:28.658Z,30.78
2022-12-16T20:03:35.185Z,31.05
2022-12-16T20:08:41.113Z,31.51
2022-12-16T20:13:47.316Z,30.82
2022-12-16T20:18:54.877Z,30.30
2022-12-16T20:24:31.648Z,31.67
2022-12-16T20:29:37.766Z,29.46
2022-12-16T20:34:44.134Z,29.25
2022-12-16T20:44:56.929Z,28.03
2022-12-16T20:50:03.101Z,27.13
2022-12-16T20:55:10.210Z,28.79
2022-12-16T21:00:16.340Z,29.19
2022-12-16T21:05:22.590Z,29.18
2022-12-16T21:10:28.740Z,31.04
2022-12-16T21:15:35.153Z,32.40
2022-12-16T21:21:14.791Z,35.84
2022-12-16T21:26:21.371Z,32.89
2022-12-16T21:31:27.555Z,31.48
2022-12-16T21:36:34.174Z,31.01
2022-12-16T21:41:40.251Z,29.92
2022-12-16T21:46:46.828Z,29.63
2022-12-16T21:51:56.213Z,28.16
2022-12-16T21:56:59.643Z,29.33
2022-12-16T22:02:06.208Z,29.12
2022-12-16T22:07:12.415Z,28.15
2022-12-16T22:12:18.541Z,25.71
2022-12-16T22:17:24.818Z,25.25
2022-12-16T22:22:30.885Z,26.41
2022-12-16T22:27:37.154Z,27.37
2022-12-16T22:32:43.350Z,27.75
2022-12-16T22:36:21.279Z,27.84
2022-12-16T22:37:49.938Z,26.21
2022-12-16T22:42:56.426Z,26.31
2022-12-16T22:48:02.695Z,24.86
2022-12-16T22:53:09.591Z,23.66
2022-12-16T22:58:14.614Z,24.69
2022-12-16T23:03:20.751Z,23.79
2022-12-16T23:08:26.976Z,24.25
2022-12-16T23:13:33.065Z,23.77
2022-12-16T23:18:39.387Z,22.88
2022-12-16T23:23:46.301Z,23.47
2022-12-16T23:28:52.564Z,23.81
2022-12-16T23:33:58.687Z,23.11
2022-12-16T23:39:05.171Z,22.33
2022-12-16T23:44:11.343Z,21.17
2022-12-16T23:49:18.018Z,21.77
2022-12-16T23:54:24.228Z,21.16
2022-12-16T23:59:30.562Z,20.94
